createdAt,value
2023-04-15T00:01:23.883Z,1.20
2023-04-15T00:04:17.314Z,1.55
2023-04-15T00:07:10.247Z,1.45
2023-04-15T00:10:04.303Z,1.23
2023-04-15T00:12:58.644Z,1.02
2023-04-15T00:15:52.085Z,1.00
2023-04-15T00:18:45.825Z,0.95
2023-04-15T00:21:39.594Z,1.77
2023-04-15T00:24:32.710Z,1.40
2023-04-15T00:27:25.536Z,2.42
2023-04-15T00:30:19.626Z,1.13
2023-04-15T00:33:14.233Z,1.20
2023-04-15T00:36:08.467Z,1.05
2023-04-15T00:39:01.480Z,1.75
2023-04-15T00:41:55.698Z,2.10
2023-04-15T00:44:48.718Z,1.48
2023-04-15T00:47:45.025Z,1.38
2023-04-15T00:50:38.434Z,1.27
2023-04-15T00:53:31.489Z,1.10
2023-04-15T00:56:25.281Z,1.33
2023-04-15T00:59:19.512Z,1.52
2023-04-15T01:02:12.697Z,0.70
2023-04-15T01:05:08.358Z,1.58
2023-04-15T01:08:01.386Z,1.40
2023-04-15T01:10:55.862Z,1.52
2023-04-15T01:13:49.968Z,1.20
2023-04-15T01:16:43.826Z,1.67
2023-04-15T01:19:37.873Z,1.10
2023-04-15T01:22:35.295Z,0.93
2023-04-15T01:25:33.209Z,0.77
2023-04-15T01:28:27.045Z,1.13
2023-04-15T01:31:20.093Z,1.80
2023-04-15T01:34:13.516Z,0.88
2023-04-15T01:37:06.344Z,0.60
2023-04-15T01:39:59.737Z,0.82
2023-04-15T01:42:53.988Z,1.33
2023-04-15T01:45:47.986Z,1.02
2023-04-15T01:48:41.373Z,1.55
2023-04-15T01:51:34.277Z,1.10
2023-04-15T01:54:28.389Z,0.80
2023-04-15T01:57:21.889Z,1.23
2023-04-15T02:00:17.687Z,1.25
2023-04-15T02:03:10.911Z,0.60
2023-04-15T02:06:04.600Z,0.82
2023-04-15T02:08:57.492Z,1.35
2023-04-15T02:11:51.648Z,1.45
2023-04-15T02:14:44.629Z,0.88
2023-04-15T02:17:39.138Z,1.15
2023-04-15T02:20:33.118Z,2.00
2023-04-15T02:23:26.459Z,1.10
2023-04-15T02:26:19.245Z,1.15
2023-04-15T02:29:13.082Z,1.52
2023-04-15T02:32:07.223Z,1.05
2023-04-15T02:35:05.556Z,0.88
2023-04-15T02:37:58.579Z,0.88
2023-04-15T02:40:51.780Z,0.80
2023-04-15T02:43:44.525Z,1.20
2023-04-15T02:46:37.599Z,1.48
2023-04-15T02:49:31.090Z,1.50
2023-04-15T02:52:26.158Z,1.15
2023-04-15T02:55:19.400Z,0.95
2023-04-15T02:58:12.401Z,0.60
2023-04-15T03:01:05.458Z,0.80
2023-04-15T03:03:58.614Z,1.30
2023-04-15T03:06:51.478Z,0.70
2023-04-15T03:09:46.001Z,1.67
2023-04-15T03:12:40.715Z,0.77
2023-04-15T03:15:34.102Z,1.65
2023-04-15T03:18:27.271Z,0.65
2023-04-15T03:21:20.684Z,0.93
2023-04-15T03:24:13.302Z,1.25
2023-04-15T03:27:08.369Z,0.75
2023-04-15T03:30:01.943Z,1.25
2023-04-15T03:32:55.549Z,0.77
2023-04-15T03:35:48.237Z,0.80
2023-04-15T03:38:41.762Z,1.08
2023-04-15T03:41:34.401Z,1.15
2023-04-15T03:44:29.165Z,1.00
2023-04-15T03:47:22.843Z,1.83
2023-04-15T03:50:15.637Z,0.60
2023-04-15T03:53:08.802Z,0.80
2023-04-15T03:56:01.589Z,0.98
2023-04-15T03:58:54.307Z,0.98
2023-04-15T04:01:48.911Z,0.95
2023-04-15T04:04:42.552Z,0.75
2023-04-15T04:07:35.437Z,1.30
2023-04-15T04:10:28.708Z,1.35
2023-04-15T04:13:21.589Z,0.57
2023-04-15T04:16:15.335Z,1.50
2023-04-15T04:19:10.162Z,0.63
2023-04-15T04:22:03.842Z,1.15
2023-04-15T04:24:56.658Z,1.10
2023-04-15T04:27:49.263Z,1.08
2023-04-15T04:30:42.324Z,1.48
2023-04-15T04:33:38.041Z,0.77
2023-04-15T04:36:32.878Z,0.80
2023-04-15T04:39:25.536Z,1.80
2023-04-15T04:42:18.805Z,1.10
2023-04-15T04:45:12.491Z,1.00
2023-04-15T04:48:07.203Z,0.70
2023-04-15T04:51:00.793Z,1.17
2023-04-15T04:53:55.256Z,1.15
2023-04-15T04:56:48.721Z,1.20
2023-04-15T04:59:41.999Z,1.02
2023-04-15T05:02:36.143Z,0.90
2023-04-15T05:05:29.580Z,1.13
2023-04-15T05:08:22.342Z,1.52
2023-04-15T05:11:16.894Z,1.20
2023-04-15T05:14:09.540Z,0.82
2023-04-15T05:17:03.354Z,0.80
2023-04-15T05:19:56.877Z,0.98
2023-04-15T05:22:49.558Z,1.00
2023-04-15T05:25:42.584Z,0.70
2023-04-15T05:28:36.866Z,0.50
2023-04-15T05:31:29.541Z,1.23
2023-04-15T05:34:22.909Z,0.75
2023-04-15T05:37:15.750Z,1.65
2023-04-15T05:40:10.521Z,0.90
2023-04-15T05:43:03.883Z,1.27
2023-04-15T05:45:58.187Z,0.70
2023-04-15T05:48:51.489Z,0.80
2023-04-15T05:51:44.727Z,0.70
2023-04-15T05:54:37.624Z,1.10
2023-04-15T05:57:30.316Z,0.88
2023-04-15T06:00:24.183Z,1.02
2023-04-15T06:03:19.191Z,0.75
2023-04-15T06:06:12.645Z,1.05
2023-04-15T06:09:06.081Z,0.93
2023-04-15T06:12:01.598Z,0.60
2023-04-15T06:14:54.746Z,1.45
2023-04-15T06:17:47.569Z,0.85
2023-04-15T06:20:42.128Z,0.98
2023-04-15T06:23:36.392Z,0.93
2023-04-15T06:26:29.401Z,0.60
2023-04-15T06:29:22.378Z,0.60
2023-04-15T06:32:15.499Z,1.50
2023-04-15T06:35:09.529Z,0.60
2023-04-15T06:38:03.910Z,1.20
2023-04-15T06:40:56.575Z,1.15
2023-04-15T06:43:49.989Z,0.88
2023-04-15T06:46:43.124Z,1.08
2023-04-15T06:49:36.716Z,1.25
2023-04-15T06:52:29.843Z,0.90
2023-04-15T06:55:23.919Z,0.60
2023-04-15T06:58:17.093Z,1.40
2023-04-15T07:01:10.923Z,1.52
2023-04-15T07:04:04.044Z,1.05
2023-04-15T07:06:57.514Z,0.70
2023-04-15T07:09:51.204Z,0.75
2023-04-15T07:12:46.472Z,0.50
2023-04-15T07:15:40.402Z,0.47
2023-04-15T07:18:33.950Z,0.88
2023-04-15T07:21:27.600Z,0.80
2023-04-15T07:24:20.757Z,1.15
2023-04-15T07:27:13.763Z,1.23
2023-04-15T07:30:12.517Z,0.98
2023-04-15T07:33:05.647Z,0.70
2023-04-15T07:35:58.650Z,0.85
2023-04-15T07:38:52.058Z,0.70
2023-04-15T07:41:45.012Z,0.75
2023-04-15T07:44:38.002Z,0.93
2023-04-15T07:47:32.358Z,1.17
2023-04-15T07:50:26.256Z,1.52
2023-04-15T07:53:20.253Z,0.70
2023-04-15T07:56:13.731Z,1.27
2023-04-15T07:59:06.958Z,0.82
2023-04-15T08:02:00.355Z,0.85
2023-04-15T08:04:55.269Z,0.60
2023-04-15T08:07:48.672Z,0.60
2023-04-15T08:10:44.436Z,0.93
2023-04-15T08:13:37.619Z,0.65
2023-04-15T08:16:30.943Z,0.82
2023-04-15T08:19:24.353Z,0.80
2023-04-15T08:22:20.557Z,2.35
2023-04-15T08:25:14.716Z,0.80
2023-04-15T08:28:09.706Z,0.52
2023-04-15T08:31:02.772Z,0.73
2023-04-15T08:33:56.834Z,1.80
2023-04-15T08:36:49.749Z,0.70
2023-04-15T08:39:45.247Z,1.48
2023-04-15T08:42:45.093Z,0.82
2023-04-15T08:45:40.865Z,1.05
2023-04-15T08:48:34.488Z,1.13
2023-04-15T08:51:28.296Z,0.60
2023-04-15T08:54:21.888Z,1.20
2023-04-15T08:57:16.684Z,1.08
2023-04-15T09:00:12.430Z,0.73
2023-04-15T09:03:06.563Z,0.98
2023-04-15T09:06:00.700Z,0.60
2023-04-15T09:08:54.208Z,1.13
2023-04-15T09:11:49.844Z,0.77
2023-04-15T09:14:46.842Z,0.60
2023-04-15T09:17:44.266Z,10.50
2023-04-15T09:20:42.037Z,4.53
2023-04-15T09:23:35.018Z,4.82
2023-04-15T09:26:33.381Z,5.68
2023-04-15T09:29:26.901Z,4.05
2023-04-15T09:32:23.379Z,5.93
2023-04-15T09:35:17.242Z,5.35
2023-04-15T09:38:11.701Z,5.15
2023-04-15T09:41:05.011Z,6.32
2023-04-15T09:43:57.896Z,9.73
2023-04-15T09:46:52.548Z,6.88
2023-04-15T09:49:57.045Z,3.90
2023-04-15T09:52:49.684Z,7.63
2023-04-15T09:55:46.068Z,4.10
2023-04-15T09:58:39.327Z,3.17
2023-04-15T10:01:32.877Z,4.78
2023-04-15T10:04:28.703Z,2.17
2023-04-15T10:07:24.383Z,2.28
2023-04-15T10:10:18.537Z,2.42
2023-04-15T10:13:12.875Z,4.47
2023-04-15T10:16:08.056Z,3.83
2023-04-15T10:19:03.729Z,3.05
2023-04-15T10:21:57.209Z,5.22
2023-04-15T10:24:52.318Z,2.97
2023-04-15T10:27:48.431Z,4.82
2023-04-15T10:30:42.593Z,3.00
2023-04-15T10:33:36.734Z,2.78
2023-04-15T10:36:30.684Z,4.13
2023-04-15T10:39:44.449Z,4.57
2023-04-15T10:42:39.257Z,2.45
2023-04-15T10:45:36.655Z,3.90
2023-04-15T10:48:32.541Z,2.50
2023-04-15T10:51:32.875Z,5.13
2023-04-15T10:54:33.624Z,3.75
2023-04-15T10:57:35.262Z,2.97
2023-04-15T11:00:32.544Z,3.53
2023-04-15T11:03:39.436Z,4.38
2023-04-15T11:06:45.808Z,3.28
2023-04-15T11:09:38.642Z,2.90
2023-04-15T11:12:37.897Z,3.30
2023-04-15T11:15:33.948Z,3.88
2023-04-15T11:18:30.389Z,3.55
2023-04-15T11:21:28.180Z,3.55
2023-04-15T11:24:27.291Z,3.65
2023-04-15T11:27:24.429Z,2.88
2023-04-15T11:30:21.156Z,1.88
2023-04-15T11:33:14.974Z,3.63
2023-04-15T11:36:07.944Z,3.45
2023-04-15T11:39:01.578Z,2.78
2023-04-15T11:41:54.870Z,2.28
2023-04-15T11:44:48.120Z,3.50
2023-04-15T11:47:41.835Z,5.18
2023-04-15T11:50:37.373Z,3.67
2023-04-15T11:53:39.271Z,2.75
2023-04-15T11:56:32.938Z,2.42
2023-04-15T11:59:30.244Z,1.63
2023-04-15T12:02:33.159Z,3.33
2023-04-15T12:05:25.547Z,2.10
2023-04-15T12:08:19.955Z,2.05
2023-04-15T12:11:13.260Z,2.30
2023-04-15T12:14:09.031Z,3.58
2023-04-15T12:17:03.266Z,4.22
2023-04-15T12:19:57.846Z,3.92
2023-04-15T12:22:50.826Z,3.58
2023-04-15T12:25:45.080Z,1.83
2023-04-15T12:28:42.076Z,3.45
2023-04-15T12:31:36.561Z,2.55
2023-04-15T12:34:31.369Z,2.80
2023-04-15T12:37:25.983Z,1.60
2023-04-15T12:40:20.711Z,2.70
2023-04-15T12:43:15.287Z,2.45
2023-04-15T12:46:08.423Z,1.45
2023-04-15T12:49:02.321Z,1.05
2023-04-15T12:51:56.683Z,2.58
2023-04-15T12:54:49.943Z,2.60
2023-04-15T12:57:43.390Z,1.20
2023-04-15T13:00:38.414Z,1.10
2023-04-15T13:03:32.297Z,0.82
2023-04-15T13:06:26.075Z,1.42
2023-04-15T13:09:19.029Z,1.73
2023-04-15T13:12:13.825Z,1.70
2023-04-15T13:15:09.442Z,2.05
2023-04-15T13:18:04.946Z,1.10
2023-04-15T13:20:58.466Z,0.90
2023-04-15T13:23:52.245Z,0.98
2023-04-15T13:26:45.102Z,1.88
2023-04-15T13:29:38.657Z,1.52
2023-04-15T13:32:31.901Z,0.70
2023-04-15T13:35:26.292Z,0.50
2023-04-15T13:38:19.022Z,1.00
2023-04-15T13:41:12.487Z,0.82
2023-04-15T13:44:06.464Z,0.50
2023-04-15T13:47:00.445Z,0.70
2023-04-15T13:49:56.165Z,1.63
2023-04-15T13:52:50.788Z,1.45
2023-04-15T13:55:44.019Z,1.08
2023-04-15T13:58:37.876Z,0.85
2023-04-15T14:01:31.219Z,0.95
2023-04-15T14:04:24.665Z,1.15
2023-04-15T14:07:17.698Z,2.05
2023-04-15T14:10:12.426Z,0.73
2023-04-15T14:13:06.194Z,0.93
2023-04-15T14:15:59.167Z,0.82
2023-04-15T14:18:52.406Z,0.82
2023-04-15T14:21:46.477Z,1.10
2023-04-15T14:24:39.993Z,0.60
2023-04-15T14:27:34.062Z,0.50
2023-04-15T14:30:27.259Z,0.75
2023-04-15T14:33:20.871Z,1.10
2023-04-15T14:36:14.061Z,2.30
2023-04-15T14:39:07.667Z,1.23
2023-04-15T14:42:01.204Z,1.45
2023-04-15T14:44:55.695Z,1.02
2023-04-15T14:47:49.298Z,0.75
2023-04-15T14:50:42.360Z,1.30
2023-04-15T14:53:35.710Z,1.40
2023-04-15T14:56:28.811Z,0.73
2023-04-15T14:59:22.116Z,0.75
2023-04-15T15:02:31.632Z,0.63
2023-04-15T15:05:30.181Z,0.95
2023-04-15T15:08:22.958Z,0.77
2023-04-15T15:11:16.967Z,0.85
2023-04-15T15:14:09.944Z,0.80
2023-04-15T15:17:03.269Z,1.10
2023-04-15T15:19:58.203Z,0.40
2023-04-15T15:22:51.318Z,0.70
2023-04-15T15:25:44.930Z,0.68
2023-04-15T15:28:38.515Z,0.50
2023-04-15T15:31:32.291Z,0.65
2023-04-15T15:34:24.948Z,1.42
2023-04-15T15:37:19.334Z,1.30
2023-04-15T15:40:13.254Z,0.80
2023-04-15T15:43:06.122Z,0.85
2023-04-15T15:45:59.201Z,2.38
2023-04-15T15:48:52.003Z,0.55
2023-04-15T15:51:45.788Z,0.68
2023-04-15T15:54:41.745Z,0.93
2023-04-15T15:57:35.320Z,1.52
2023-04-15T16:00:28.648Z,0.60
2023-04-15T16:03:21.992Z,1.20
2023-04-15T16:06:14.990Z,2.28
2023-04-15T16:09:08.027Z,0.93
2023-04-15T16:12:03.803Z,0.82
2023-04-15T16:14:57.419Z,0.55
2023-04-15T16:17:50.363Z,1.05
2023-04-15T16:20:43.148Z,0.50
2023-04-15T16:23:37.807Z,1.08
2023-04-15T16:26:31.319Z,0.50
2023-04-15T16:29:25.717Z,0.70
2023-04-15T16:32:19.314Z,0.95
2023-04-15T16:35:12.231Z,0.45
2023-04-15T16:38:06.326Z,0.50
2023-04-15T16:41:01.843Z,0.38
2023-04-15T16:43:55.602Z,0.38
2023-04-15T16:46:50.983Z,0.40
2023-04-15T16:49:43.988Z,0.63
2023-04-15T16:52:37.245Z,0.93
2023-04-15T16:55:30.306Z,0.60
2023-04-15T16:58:24.219Z,0.73
2023-04-15T17:01:17.444Z,0.68
2023-04-15T17:04:11.976Z,0.65
2023-04-15T17:07:06.460Z,0.50
2023-04-15T17:09:59.396Z,0.50
2023-04-15T17:12:52.466Z,0.40
2023-04-15T17:15:46.496Z,1.00
2023-04-15T17:18:39.544Z,0.47
2023-04-15T17:21:33.279Z,0.40
2023-04-15T17:24:26.505Z,0.80
2023-04-15T17:27:19.651Z,0.65
2023-04-15T17:30:13.791Z,0.90
2023-04-15T17:33:56.099Z,0.47
2023-04-15T17:36:19.977Z,0.52
2023-04-15T17:39:15.539Z,0.82
2023-04-15T17:42:08.079Z,0.73
2023-04-15T17:45:00.973Z,0.47
2023-04-15T17:47:54.453Z,0.50
2023-04-15T17:50:47.784Z,0.55
2023-04-15T17:53:41.005Z,0.80
2023-04-15T17:56:35.920Z,0.50
2023-04-15T17:59:29.248Z,0.90
2023-04-15T18:02:22.661Z,0.40
2023-04-15T18:05:16.479Z,0.50
2023-04-15T18:08:10.505Z,0.55
2023-04-15T18:11:02.985Z,0.47
2023-04-15T18:13:57.549Z,0.73
2023-04-15T18:16:50.287Z,1.23
2023-04-15T18:19:43.484Z,0.40
2023-04-15T18:22:37.302Z,0.40
2023-04-15T18:25:30.779Z,0.40
2023-04-15T18:28:24.095Z,0.65
2023-04-15T18:31:18.610Z,0.88
2023-04-15T18:34:12.343Z,0.85
2023-04-15T18:37:06.355Z,0.50
2023-04-15T18:39:59.965Z,1.17
2023-04-15T18:42:53.365Z,0.47
2023-04-15T18:45:46.624Z,0.47
2023-04-15T18:48:41.780Z,0.65
2023-04-15T18:51:35.408Z,0.40
2023-04-15T18:54:28.395Z,0.40
2023-04-15T18:57:25.661Z,0.40
2023-04-15T19:00:27.257Z,1.70
2023-04-15T19:03:20.720Z,0.47
2023-04-15T19:06:15.936Z,0.40
2023-04-15T19:09:09.620Z,0.88
2023-04-15T19:12:03.162Z,0.70
2023-04-15T19:14:56.209Z,0.50
2023-04-15T19:17:49.487Z,0.47
2023-04-15T19:20:42.466Z,1.02
2023-04-15T19:23:36.965Z,0.40
2023-04-15T19:26:30.035Z,0.40
2023-04-15T19:29:23.094Z,0.77
2023-04-15T19:32:16.256Z,0.38
2023-04-15T19:35:11.558Z,0.60
2023-04-15T19:38:06.047Z,1.02
2023-04-15T19:41:01.236Z,0.50
2023-04-15T19:43:54.418Z,0.40
2023-04-15T19:46:49.919Z,0.55
2023-04-15T19:49:43.296Z,0.40
2023-04-15T19:52:36.526Z,0.50
2023-04-15T19:55:29.520Z,0.35
2023-04-15T19:58:23.710Z,0.93
2023-04-15T20:01:17.436Z,0.40
2023-04-15T20:04:10.948Z,0.88
2023-04-15T20:07:04.261Z,0.50
2023-04-15T20:09:57.431Z,0.70
2023-04-15T20:12:53.078Z,2.08
2023-04-15T20:15:48.012Z,0.40
2023-04-15T20:18:41.444Z,0.43
2023-04-15T20:21:34.536Z,0.40
2023-04-15T20:24:27.384Z,0.40
2023-04-15T20:27:21.503Z,0.40
2023-04-15T20:30:14.245Z,0.45
2023-04-15T20:33:08.954Z,0.50
2023-04-15T20:36:02.254Z,0.47
2023-04-15T20:38:55.250Z,0.30
2023-04-15T20:41:50.436Z,0.45
2023-04-15T20:44:43.721Z,0.40
2023-04-15T20:47:37.541Z,0.38
2023-04-15T20:50:32.824Z,0.40
2023-04-15T20:53:26.270Z,0.32
2023-04-15T20:56:19.465Z,0.50
2023-04-15T20:59:12.230Z,0.90
2023-04-15T21:02:05.760Z,0.40
2023-04-15T21:05:00.177Z,0.40
2023-04-15T21:07:55.017Z,0.40
2023-04-15T21:10:48.544Z,0.47
2023-04-15T21:13:41.480Z,0.60
2023-04-15T21:16:34.832Z,0.43
2023-04-15T21:19:28.509Z,0.40
2023-04-15T21:22:21.498Z,0.40
2023-04-15T21:25:15.366Z,0.50
2023-04-15T21:28:08.433Z,0.40
2023-04-15T21:31:01.468Z,0.47
2023-04-15T21:33:54.476Z,0.50
2023-04-15T21:36:47.161Z,0.32
2023-04-15T21:39:40.126Z,0.40
2023-04-15T21:42:34.841Z,0.30
2023-04-15T21:45:28.399Z,0.40
2023-04-15T21:48:21.714Z,0.45
2023-04-15T21:51:14.272Z,0.28
2023-04-15T21:54:07.193Z,0.80
2023-04-15T21:57:00.256Z,0.60
2023-04-15T21:59:54.665Z,0.70
2023-04-15T22:02:47.380Z,0.43
2023-04-15T22:05:40.497Z,0.30
2023-04-15T22:08:41.599Z,0.45
2023-04-15T22:11:38.293Z,0.40
2023-04-15T22:14:31.565Z,1.05
2023-04-15T22:17:27.603Z,0.30
2023-04-15T22:20:20.310Z,0.38
2023-04-15T22:23:13.570Z,0.50
2023-04-15T22:26:08.161Z,1.10
2023-04-15T22:29:01.312Z,1.05
2023-04-15T22:31:54.644Z,0.50
2023-04-15T22:34:48.858Z,0.35
2023-04-15T22:37:42.148Z,0.30
2023-04-15T22:40:35.633Z,0.40
2023-04-15T22:43:28.619Z,0.43
2023-04-15T22:46:21.350Z,0.65
2023-04-15T22:49:14.533Z,0.45
2023-04-15T22:52:12.264Z,0.30
2023-04-15T22:55:10.641Z,0.77
2023-04-15T22:58:03.634Z,0.40
2023-04-15T23:00:56.671Z,0.40
2023-04-15T23:03:57.042Z,0.25
2023-04-15T23:06:57.470Z,0.47
2023-04-15T23:09:51.920Z,0.32
2023-04-15T23:12:45.251Z,0.35
2023-04-15T23:15:38.350Z,0.30
2023-04-15T23:18:31.452Z,0.43
2023-04-15T23:21:26.054Z,0.40
2023-04-15T23:24:19.308Z,0.50
2023-04-15T23:27:13.677Z,1.08
2023-04-15T23:30:07.857Z,0.30
2023-04-15T23:33:01.420Z,0.30
2023-04-15T23:35:54.797Z,0.20
2023-04-15T23:38:48.164Z,0.40
2023-04-15T23:41:41.720Z,0.32
2023-04-15T23:44:35.862Z,0.35
2023-04-15T23:47:29.893Z,0.50
2023-04-15T23:50:23.832Z,0.30
2023-04-15T23:53:17.482Z,0.30
2023-04-15T23:56:10.987Z,0.35
2023-04-15T23:59:04.563Z,0.28
